createdAt,value
2023-01-31T00:00:29.533Z,75.04
2023-01-31T00:03:10.209Z,74.97
2023-01-31T00:05:39.443Z,74.83
2023-01-31T00:08:08.320Z,74.68
2023-01-31T00:10:38.511Z,74.88
2023-01-31T00:13:07.128Z,74.91
2023-01-31T00:15:36.042Z,74.82
2023-01-31T00:18:07.491Z,75.00
2023-01-31T00:20:37.138Z,74.94
2023-01-31T00:23:09.728Z,74.58
2023-01-31T00:25:39.731Z,74.68
2023-01-31T00:28:08.423Z,74.92
2023-01-31T00:30:37.156Z,75.03
2023-01-31T00:33:06.057Z,74.89
2023-01-31T00:35:34.615Z,74.92
2023-01-31T00:38:03.411Z,74.93
2023-01-31T00:40:31.905Z,74.75
2023-01-31T00:43:01.620Z,74.84
2023-01-31T00:45:29.956Z,74.90
2023-01-31T00:47:58.299Z,74.93
2023-01-31T00:50:28.656Z,74.84
2023-01-31T00:52:57.018Z,74.99
2023-01-31T00:55:25.500Z,74.83
2023-01-31T00:57:53.832Z,74.90
2023-01-31T01:00:23.746Z,74.78
2023-01-31T01:02:57.282Z,74.93
2023-01-31T01:05:25.712Z,74.90
2023-01-31T01:07:54.066Z,75.10
2023-01-31T01:10:22.649Z,74.89
2023-01-31T01:12:51.009Z,74.79
2023-01-31T01:15:19.837Z,74.83
2023-01-31T01:17:50.927Z,74.92
2023-01-31T01:20:24.911Z,74.80
2023-01-31T01:22:53.497Z,74.50
2023-01-31T01:25:22.135Z,74.78
2023-01-31T01:27:50.578Z,74.60
2023-01-31T01:30:20.266Z,74.58
2023-01-31T01:32:49.973Z,74.64
2023-01-31T01:35:18.642Z,74.58
2023-01-31T01:37:47.121Z,74.66
2023-01-31T01:40:15.432Z,74.75
2023-01-31T01:42:45.728Z,74.65
2023-01-31T01:45:17.851Z,74.69
2023-01-31T01:47:52.082Z,74.71
2023-01-31T01:50:25.049Z,74.59
2023-01-31T01:52:57.623Z,74.57
2023-01-31T01:55:31.718Z,74.67
2023-01-31T01:58:05.624Z,74.62
2023-01-31T02:00:35.337Z,74.55
2023-01-31T02:03:07.081Z,74.60
2023-01-31T02:05:41.397Z,74.56
2023-01-31T02:08:10.393Z,74.59
2023-01-31T02:10:46.710Z,74.64
2023-01-31T02:13:16.400Z,74.59
2023-01-31T02:15:45.203Z,74.45
2023-01-31T02:18:15.578Z,74.38
2023-01-31T02:21:25.305Z,74.56
2023-01-31T02:24:21.250Z,74.22
2023-01-31T02:27:23.612Z,74.48
2023-01-31T02:30:33.915Z,74.32
2023-01-31T02:33:13.870Z,74.27
2023-01-31T02:35:56.093Z,74.24
2023-01-31T02:38:37.782Z,74.07
2023-01-31T02:41:16.339Z,74.26
2023-01-31T02:44:07.210Z,74.40
2023-01-31T02:46:43.410Z,74.35
2023-01-31T02:49:34.465Z,74.46
2023-01-31T02:52:17.531Z,74.35
2023-01-31T02:55:11.605Z,74.57
2023-01-31T02:57:43.253Z,74.41
2023-01-31T03:00:13.567Z,74.53
2023-01-31T03:02:42.017Z,74.28
2023-01-31T03:05:16.887Z,74.15
2023-01-31T03:07:49.534Z,74.17
2023-01-31T03:10:40.849Z,74.42
2023-01-31T03:13:24.260Z,74.33
2023-01-31T03:16:18.948Z,74.29
2023-01-31T03:18:59.614Z,74.14
2023-01-31T03:21:36.368Z,74.13
2023-01-31T03:24:07.669Z,74.07
2023-01-31T03:26:36.883Z,74.20
2023-01-31T03:29:08.016Z,74.00
2023-01-31T03:31:40.682Z,73.99
2023-01-31T03:34:12.538Z,73.83
2023-01-31T03:36:54.910Z,73.95
2023-01-31T03:39:32.687Z,74.07
2023-01-31T03:42:07.506Z,73.87
2023-01-31T03:44:47.924Z,73.89
2023-01-31T03:47:23.499Z,73.86
2023-01-31T03:49:54.159Z,73.84
2023-01-31T03:52:31.355Z,74.06
2023-01-31T03:55:03.783Z,73.95
2023-01-31T03:57:36.272Z,73.71
2023-01-31T04:00:09.416Z,73.59
2023-01-31T04:02:50.647Z,73.54
2023-01-31T04:05:22.684Z,73.52
2023-01-31T04:07:52.507Z,73.67
2023-01-31T04:10:21.137Z,73.72
2023-01-31T04:12:49.483Z,73.73
2023-01-31T04:15:18.613Z,73.40
2023-01-31T04:17:47.213Z,73.50
2023-01-31T04:20:15.794Z,73.55
2023-01-31T04:22:44.621Z,73.28
2023-01-31T04:25:14.337Z,73.36
2023-01-31T04:27:42.764Z,73.30
2023-01-31T04:30:12.299Z,73.29
2023-01-31T04:32:40.611Z,73.48
2023-01-31T04:35:10.233Z,73.33
2023-01-31T04:37:38.559Z,73.47
2023-01-31T04:40:08.694Z,73.24
2023-01-31T04:42:38.415Z,73.42
2023-01-31T04:45:07.988Z,73.28
2023-01-31T04:47:36.352Z,73.39
2023-01-31T04:50:05.668Z,73.23
2023-01-31T04:52:33.977Z,73.28
2023-01-31T04:55:02.325Z,73.16
2023-01-31T04:57:31.710Z,73.42
2023-01-31T05:00:01.474Z,73.50
2023-01-31T05:02:32.499Z,73.38
2023-01-31T05:05:01.586Z,73.52
2023-01-31T05:07:29.936Z,73.15
2023-01-31T05:09:58.274Z,73.43
2023-01-31T05:12:26.896Z,73.21
2023-01-31T05:14:55.287Z,73.28
2023-01-31T05:17:29.612Z,73.19
2023-01-31T05:19:58.785Z,73.29
2023-01-31T05:22:27.470Z,73.39
2023-01-31T05:24:57.638Z,73.44
2023-01-31T05:27:27.421Z,73.35
2023-01-31T05:29:56.023Z,73.19
2023-01-31T05:32:25.757Z,73.36
2023-01-31T05:34:54.147Z,73.10
2023-01-31T05:37:22.463Z,73.11
2023-01-31T05:39:51.030Z,73.10
2023-01-31T05:42:19.390Z,73.08
2023-01-31T05:44:47.747Z,73.38
2023-01-31T05:47:16.081Z,72.97
2023-01-31T05:49:52.358Z,73.01
2023-01-31T05:52:20.705Z,72.90
2023-01-31T05:54:49.066Z,73.18
2023-01-31T05:57:17.420Z,72.80
2023-01-31T05:59:46.018Z,73.10
2023-01-31T06:02:14.515Z,72.80
2023-01-31T06:04:42.988Z,73.08
2023-01-31T06:07:12.615Z,72.77
2023-01-31T06:09:41.966Z,72.76
2023-01-31T06:12:14.053Z,73.12
2023-01-31T06:14:42.595Z,72.60
2023-01-31T06:17:10.969Z,72.67
2023-01-31T06:19:39.622Z,72.70
2023-01-31T06:22:07.930Z,72.56
2023-01-31T06:24:37.601Z,72.52
2023-01-31T06:27:05.962Z,72.56
2023-01-31T06:29:34.304Z,72.71
2023-01-31T06:32:02.635Z,72.64
2023-01-31T06:34:30.990Z,72.44
2023-01-31T06:36:59.376Z,72.62
2023-01-31T06:39:27.817Z,72.58
2023-01-31T06:41:57.719Z,72.37
2023-01-31T06:44:26.654Z,72.27
2023-01-31T06:46:56.169Z,72.22
2023-01-31T06:49:24.574Z,72.14
2023-01-31T06:51:52.867Z,72.25
2023-01-31T06:54:21.243Z,72.17
2023-01-31T06:56:49.892Z,72.13
2023-01-31T06:59:19.819Z,72.18
2023-01-31T07:01:48.175Z,72.16
2023-01-31T07:04:16.770Z,71.86
2023-01-31T07:06:45.164Z,71.87
2023-01-31T07:09:14.918Z,71.86
2023-01-31T07:11:43.304Z,71.85
2023-01-31T07:14:11.675Z,71.79
2023-01-31T07:16:41.449Z,71.63
2023-01-31T07:19:09.994Z,71.75
2023-01-31T07:21:38.599Z,71.73
2023-01-31T07:24:07.913Z,71.66
2023-01-31T07:26:36.237Z,71.53
2023-01-31T07:29:04.770Z,71.41
2023-01-31T07:31:33.482Z,71.30
2023-01-31T07:34:03.152Z,71.38
2023-01-31T07:36:31.467Z,71.28
2023-01-31T07:39:01.771Z,71.28
2023-01-31T07:41:30.332Z,71.28
2023-01-31T07:43:59.755Z,71.04
2023-01-31T07:46:28.281Z,71.01
2023-01-31T07:48:56.599Z,71.16
2023-01-31T07:51:26.482Z,71.14
2023-01-31T07:53:54.887Z,70.99
2023-01-31T07:56:23.739Z,71.01
2023-01-31T07:58:52.222Z,70.90
2023-01-31T08:01:40.218Z,70.60
2023-01-31T08:04:20.514Z,70.80
2023-01-31T08:06:54.274Z,70.78
2023-01-31T08:09:22.708Z,70.65
2023-01-31T08:11:51.927Z,70.48
2023-01-31T08:14:23.738Z,70.96
2023-01-31T08:16:52.188Z,70.53
2023-01-31T08:19:20.569Z,70.41
2023-01-31T08:21:49.005Z,70.28
2023-01-31T08:24:18.667Z,70.29
2023-01-31T08:26:47.014Z,70.23
2023-01-31T08:29:15.383Z,70.30
2023-01-31T08:31:44.095Z,70.20
2023-01-31T08:34:12.632Z,69.96
2023-01-31T08:36:41.026Z,70.23
2023-01-31T08:39:09.410Z,69.85
2023-01-31T08:41:40.273Z,70.10
2023-01-31T08:44:08.874Z,70.18
2023-01-31T08:46:38.408Z,70.24
2023-01-31T08:49:08.329Z,69.81
2023-01-31T08:51:36.651Z,69.97
2023-01-31T08:54:05.159Z,70.02
2023-01-31T08:56:33.957Z,70.02
2023-01-31T08:59:03.701Z,69.71
2023-01-31T09:01:35.485Z,69.72
2023-01-31T09:04:03.911Z,69.76
2023-01-31T09:06:32.433Z,69.81
2023-01-31T09:09:00.923Z,69.54
2023-01-31T09:11:30.572Z,69.32
2023-01-31T09:13:59.522Z,69.64
2023-01-31T09:16:29.927Z,69.50
2023-01-31T09:18:58.421Z,69.58
2023-01-31T09:21:27.160Z,69.57
2023-01-31T09:23:57.783Z,69.58
2023-01-31T09:26:26.852Z,69.65
2023-01-31T09:28:56.236Z,69.97
2023-01-31T09:31:25.121Z,69.52
2023-01-31T09:33:55.648Z,69.63
2023-01-31T09:36:25.142Z,69.66
2023-01-31T09:38:56.564Z,69.42
2023-01-31T09:41:31.365Z,69.33
2023-01-31T09:44:04.103Z,69.04
2023-01-31T09:46:38.137Z,68.67
2023-01-31T09:49:11.980Z,68.71
2023-01-31T09:51:40.866Z,67.98
2023-01-31T09:54:20.818Z,68.11
2023-01-31T09:57:00.962Z,67.97
2023-01-31T09:59:37.937Z,68.07
2023-01-31T10:02:30.634Z,67.73
2023-01-31T10:05:23.194Z,67.61
2023-01-31T10:08:01.653Z,67.76
2023-01-31T10:10:40.122Z,67.45
2023-01-31T10:13:18.490Z,67.49
2023-01-31T10:15:50.643Z,67.14
2023-01-31T10:18:24.912Z,67.19
2023-01-31T10:21:03.125Z,66.88
2023-01-31T10:23:39.238Z,67.13
2023-01-31T10:26:13.201Z,66.92
2023-01-31T10:28:50.244Z,67.28
2023-01-31T10:31:30.544Z,67.01
2023-01-31T10:34:04.259Z,66.76
2023-01-31T10:36:39.244Z,66.46
2023-01-31T10:39:15.943Z,66.53
2023-01-31T10:41:53.268Z,66.64
2023-01-31T10:44:25.486Z,66.47
2023-01-31T10:46:57.828Z,66.59
2023-01-31T10:49:28.339Z,67.10
2023-01-31T10:52:14.248Z,66.45
2023-01-31T10:54:54.415Z,66.83
2023-01-31T10:57:23.746Z,67.23
2023-01-31T10:59:53.116Z,66.75
2023-01-31T11:02:24.701Z,66.96
2023-01-31T11:04:54.923Z,66.92
2023-01-31T11:07:25.551Z,66.67
2023-01-31T11:09:55.595Z,66.87
2023-01-31T11:12:41.976Z,66.63
2023-01-31T11:15:18.189Z,66.10
2023-01-31T11:17:48.371Z,66.75
2023-01-31T11:20:24.160Z,66.85
2023-01-31T11:22:57.083Z,66.98
2023-01-31T11:25:27.675Z,66.43
2023-01-31T11:28:02.438Z,66.43
2023-01-31T11:30:35.043Z,66.79
2023-01-31T11:33:03.985Z,66.24
2023-01-31T11:35:33.551Z,65.91
2023-01-31T11:38:20.343Z,66.11
2023-01-31T11:40:48.718Z,66.06
2023-01-31T11:43:26.850Z,65.90
2023-01-31T11:45:58.617Z,66.56
2023-01-31T11:48:29.983Z,66.19
2023-01-31T11:51:01.831Z,66.49
2023-01-31T11:53:39.432Z,66.36
2023-01-31T11:56:14.066Z,66.22
2023-01-31T11:58:44.530Z,66.67
2023-01-31T12:01:16.548Z,66.67
2023-01-31T12:04:01.318Z,66.49
2023-01-31T12:06:33.892Z,66.62
2023-01-31T12:09:06.085Z,66.27
2023-01-31T12:17:50.619Z,66.60
2023-01-31T12:20:29.120Z,66.37
2023-01-31T12:26:14.791Z,66.59
2023-01-31T12:28:59.472Z,66.28
2023-01-31T12:31:52.240Z,66.48
2023-01-31T12:34:32.573Z,66.88
2023-01-31T12:37:22.034Z,67.07
2023-01-31T12:40:23.773Z,66.82
2023-01-31T12:42:59.306Z,66.90
2023-01-31T12:46:15.069Z,66.39
2023-01-31T12:49:00.673Z,66.80
2023-01-31T12:51:42.725Z,66.21
2023-01-31T12:54:41.074Z,66.72
2023-01-31T12:57:30.468Z,66.53
2023-01-31T13:00:13.137Z,66.34
2023-01-31T13:02:55.428Z,66.50
2023-01-31T13:05:29.760Z,66.51
2023-01-31T13:08:03.506Z,66.30
2023-01-31T13:10:38.715Z,65.77
2023-01-31T13:13:17.354Z,66.07
2023-01-31T13:15:52.446Z,65.99
2023-01-31T13:18:23.202Z,65.97
2023-01-31T13:20:56.955Z,65.84
2023-01-31T13:23:36.159Z,66.42
2023-01-31T13:26:11.690Z,66.51
2023-01-31T13:28:46.527Z,66.22
2023-01-31T13:31:23.787Z,65.91
2023-01-31T13:33:59.206Z,66.49
2023-01-31T13:36:33.205Z,66.32
2023-01-31T13:39:08.723Z,66.36
2023-01-31T13:41:39.678Z,66.73
2023-01-31T13:44:13.983Z,66.25
2023-01-31T13:46:52.700Z,65.84
2023-01-31T13:49:27.309Z,65.74
2023-01-31T13:52:01.725Z,65.07
2023-01-31T13:54:34.560Z,65.04
2023-01-31T13:57:03.802Z,65.73
2023-01-31T13:59:34.960Z,65.79
2023-01-31T14:02:08.363Z,66.06
2023-01-31T14:04:40.368Z,65.65
2023-01-31T14:07:20.656Z,65.24
2023-01-31T14:10:22.490Z,65.39
2023-01-31T14:13:10.842Z,65.24
2023-01-31T14:15:50.939Z,65.04
2023-01-31T14:18:37.710Z,64.97
2023-01-31T14:21:55.027Z,64.88
2023-01-31T14:25:05.291Z,64.88
2023-01-31T14:27:37.838Z,65.74
2023-01-31T14:30:24.880Z,65.30
2023-01-31T14:33:06.838Z,66.02
2023-01-31T14:36:00.117Z,65.45
2023-01-31T14:38:42.488Z,65.68
2023-01-31T14:41:20.132Z,66.04
2023-01-31T14:44:03.772Z,66.14
2023-01-31T14:46:47.192Z,65.96
2023-01-31T14:49:33.256Z,65.78
2023-01-31T14:52:28.377Z,65.51
2023-01-31T14:55:19.277Z,66.01
2023-01-31T14:57:51.515Z,66.33
2023-01-31T15:00:23.569Z,65.99
2023-01-31T15:02:56.948Z,65.77
2023-01-31T15:05:42.493Z,65.62
2023-01-31T15:08:36.993Z,65.94
2023-01-31T15:11:07.372Z,65.45
2023-01-31T15:13:47.089Z,65.71
2023-01-31T15:16:34.183Z,64.89
2023-01-31T15:19:09.348Z,64.91
2023-01-31T15:21:44.649Z,65.37
2023-01-31T15:24:19.957Z,64.92
2023-01-31T15:26:50.734Z,64.75
2023-01-31T15:29:24.676Z,65.10
2023-01-31T15:31:58.211Z,64.82
2023-01-31T15:34:33.145Z,65.09
2023-01-31T15:37:09.272Z,65.00
2023-01-31T15:39:42.799Z,65.17
2023-01-31T15:42:26.197Z,64.59
2023-01-31T15:45:19.848Z,64.77
2023-01-31T15:47:57.115Z,65.28
2023-01-31T15:50:25.576Z,64.74
2023-01-31T15:52:57.049Z,64.90
2023-01-31T15:55:25.494Z,64.63
2023-01-31T15:57:57.587Z,64.65
2023-01-31T16:00:29.817Z,64.51
2023-01-31T16:03:01.761Z,64.55
2023-01-31T16:05:32.800Z,65.07
2023-01-31T16:08:05.167Z,64.94
2023-01-31T16:10:33.836Z,65.07
2023-01-31T16:13:02.980Z,64.39
2023-01-31T16:15:33.181Z,64.94
2023-01-31T16:18:03.841Z,64.60
2023-01-31T16:20:46.845Z,64.70
2023-01-31T16:23:31.511Z,64.67
2023-01-31T16:26:07.447Z,64.45
2023-01-31T16:28:41.945Z,64.75
2023-01-31T16:31:13.236Z,64.06
2023-01-31T16:33:49.923Z,64.41
2023-01-31T16:36:24.809Z,63.94
2023-01-31T16:39:01.497Z,63.71
2023-01-31T16:41:44.432Z,63.97
2023-01-31T16:44:16.671Z,63.81
2023-01-31T16:46:48.366Z,64.01
2023-01-31T16:49:23.052Z,63.30
2023-01-31T16:51:57.964Z,63.54
2023-01-31T16:54:31.750Z,63.48
2023-01-31T16:57:08.654Z,63.32
2023-01-31T16:59:45.463Z,63.41
2023-01-31T17:02:19.115Z,63.29
2023-01-31T17:04:52.976Z,62.84
2023-01-31T17:07:23.563Z,62.75
2023-01-31T17:09:57.585Z,62.80
2023-01-31T17:12:28.298Z,62.26
2023-01-31T17:15:00.889Z,62.20
2023-01-31T17:17:34.109Z,62.11
2023-01-31T17:20:02.497Z,62.17
2023-01-31T17:22:31.485Z,62.82
2023-01-31T17:25:01.440Z,62.17
2023-01-31T17:27:29.925Z,62.00
2023-01-31T17:29:59.728Z,62.28
2023-01-31T17:32:28.148Z,62.30
2023-01-31T17:34:56.492Z,62.13
2023-01-31T17:37:31.663Z,61.83
2023-01-31T17:40:02.341Z,61.87
2023-01-31T17:42:30.705Z,62.36
2023-01-31T17:44:58.993Z,61.84
2023-01-31T17:47:27.778Z,62.08
2023-01-31T17:49:57.424Z,61.72
2023-01-31T17:52:26.126Z,61.48
2023-01-31T17:54:54.484Z,61.03
2023-01-31T17:57:24.187Z,61.44
2023-01-31T17:59:53.326Z,61.42
2023-01-31T18:02:22.004Z,60.67
2023-01-31T18:04:50.371Z,60.85
2023-01-31T18:07:18.711Z,60.96
2023-01-31T18:09:47.105Z,60.89
2023-01-31T18:12:34.787Z,60.36
2023-01-31T18:15:04.195Z,60.20
2023-01-31T18:17:32.745Z,60.21
2023-01-31T18:20:01.260Z,60.31
2023-01-31T18:22:32.119Z,59.67
2023-01-31T18:25:00.726Z,60.29
2023-01-31T18:27:32.296Z,60.12
2023-01-31T18:30:00.911Z,59.29
2023-01-31T18:32:30.755Z,59.11
2023-01-31T18:35:00.292Z,59.03
2023-01-31T18:37:30.640Z,58.78
2023-01-31T18:40:01.782Z,59.27
2023-01-31T18:42:34.288Z,59.19
2023-01-31T18:45:03.777Z,58.49
2023-01-31T18:47:32.261Z,59.05
2023-01-31T18:50:00.940Z,58.96
2023-01-31T18:52:30.880Z,58.73
2023-01-31T18:55:02.031Z,58.15
2023-01-31T18:57:32.442Z,57.92
2023-01-31T19:00:02.303Z,57.52
2023-01-31T19:02:32.432Z,57.09
2023-01-31T19:05:01.976Z,57.05
2023-01-31T19:07:33.879Z,57.28
2023-01-31T19:10:03.218Z,57.18
2023-01-31T19:12:33.549Z,57.14
2023-01-31T19:15:03.493Z,56.48
2023-01-31T19:17:35.650Z,56.78
2023-01-31T19:20:04.131Z,56.45
2023-01-31T19:22:32.738Z,56.16
2023-01-31T19:25:02.432Z,55.91
2023-01-31T19:27:33.770Z,55.82
2023-01-31T19:30:03.570Z,56.53
2023-01-31T19:32:33.550Z,55.68
2023-01-31T19:35:02.848Z,56.29
2023-01-31T19:37:34.258Z,55.81
2023-01-31T19:40:04.819Z,55.46
2023-01-31T19:42:33.182Z,55.41
2023-01-31T19:45:04.759Z,55.69
2023-01-31T19:47:34.284Z,55.48
2023-01-31T19:50:02.641Z,55.53
2023-01-31T19:52:35.296Z,55.54
2023-01-31T19:55:03.724Z,55.47
2023-01-31T19:57:33.000Z,55.18
2023-01-31T20:00:04.052Z,55.40
2023-01-31T20:02:33.803Z,55.77
2023-01-31T20:05:03.217Z,55.36
2023-01-31T20:07:32.932Z,54.91
2023-01-31T20:10:02.286Z,54.90
2023-01-31T20:12:34.261Z,55.03
2023-01-31T20:15:04.946Z,54.61
2023-01-31T20:17:33.512Z,54.72
2023-01-31T20:20:04.949Z,55.00
2023-01-31T20:22:33.478Z,54.59
2023-01-31T20:25:03.251Z,54.63
2023-01-31T20:27:33.785Z,54.35
2023-01-31T20:30:07.398Z,54.12
2023-01-31T20:32:35.807Z,54.60
2023-01-31T20:35:04.379Z,54.21
2023-01-31T20:37:34.386Z,54.25
2023-01-31T20:40:04.294Z,53.81
2023-01-31T20:42:33.959Z,54.18
2023-01-31T20:45:04.206Z,54.39
2023-01-31T20:47:34.676Z,53.69
2023-01-31T20:50:04.615Z,53.84
2023-01-31T20:52:34.564Z,53.86
2023-01-31T20:55:11.444Z,53.98
2023-01-31T20:57:39.863Z,53.35
2023-01-31T21:00:09.578Z,53.66
2023-01-31T21:02:40.290Z,53.87
2023-01-31T21:05:09.204Z,53.78
2023-01-31T21:07:37.558Z,53.84
2023-01-31T21:10:06.967Z,53.44
2023-01-31T21:12:35.416Z,53.55
2023-01-31T21:15:05.182Z,53.13
2023-01-31T21:17:40.369Z,53.64
2023-01-31T21:20:12.104Z,53.02
2023-01-31T21:22:40.435Z,53.56
2023-01-31T21:25:09.102Z,53.70
2023-01-31T21:27:37.899Z,54.04
2023-01-31T21:30:07.705Z,53.53
2023-01-31T21:32:36.135Z,53.63
2023-01-31T21:35:04.599Z,53.95
2023-01-31T21:37:34.354Z,54.60
2023-01-31T21:40:02.819Z,53.96
2023-01-31T21:42:31.802Z,53.97
2023-01-31T21:45:00.264Z,53.98
2023-01-31T21:47:29.122Z,53.68
2023-01-31T21:49:57.493Z,54.21
2023-01-31T21:52:25.886Z,53.70
2023-01-31T21:54:55.736Z,53.48
2023-01-31T21:57:24.128Z,53.97
2023-01-31T21:59:52.493Z,53.85
2023-01-31T22:02:20.904Z,53.63
2023-01-31T22:04:50.501Z,54.44
2023-01-31T22:07:18.882Z,54.05
2023-01-31T22:09:47.218Z,54.38
2023-01-31T22:12:16.957Z,54.01
2023-01-31T22:14:45.520Z,54.40
2023-01-31T22:17:13.937Z,54.58
2023-01-31T22:19:42.276Z,54.71
2023-01-31T22:22:10.606Z,54.23
2023-01-31T22:24:39.794Z,54.93
2023-01-31T22:27:08.166Z,54.15
2023-01-31T22:29:41.506Z,54.79
2023-01-31T22:32:09.973Z,54.77
2023-01-31T22:34:38.425Z,54.52
2023-01-31T22:37:06.918Z,54.32
2023-01-31T22:39:35.294Z,54.50
2023-01-31T22:42:03.670Z,55.12
2023-01-31T22:44:31.998Z,55.00
2023-01-31T22:47:01.686Z,54.50
2023-01-31T22:49:30.077Z,54.63
2023-01-31T22:51:58.414Z,54.22
2023-01-31T22:54:26.985Z,54.46
2023-01-31T22:56:55.357Z,54.09
2023-01-31T22:59:23.987Z,53.85
2023-01-31T23:01:52.379Z,53.83
2023-01-31T23:04:23.424Z,53.95
2023-01-31T23:06:51.882Z,53.85
2023-01-31T23:09:20.418Z,53.96
2023-01-31T23:11:48.853Z,53.70
2023-01-31T23:14:17.171Z,53.83
2023-01-31T23:17:02.968Z,54.09
2023-01-31T23:19:32.856Z,53.49
2023-01-31T23:22:01.239Z,53.56
2023-01-31T23:24:29.642Z,54.25
2023-01-31T23:26:58.022Z,53.86
2023-01-31T23:29:26.512Z,53.67
2023-01-31T23:31:54.970Z,54.16
2023-01-31T23:34:23.565Z,54.64
2023-01-31T23:36:53.314Z,54.18
2023-01-31T23:39:21.729Z,54.47
2023-01-31T23:41:50.079Z,54.48
2023-01-31T23:44:18.455Z,54.14
2023-01-31T23:46:47.047Z,54.67
2023-01-31T23:49:15.398Z,54.63
2023-01-31T23:51:45.697Z,54.51
2023-01-31T23:54:15.735Z,54.38
2023-01-31T23:56:44.039Z,54.57
2023-01-31T23:59:12.484Z,54.60
